sensor_id;sensor_type;location;lat;lon;timestamp;temperature;humidity
24326;DHT22;12448;45.532;5.290;2023-10-13T00:01:37;20.10;89.40
24326;DHT22;12448;45.532;5.290;2023-10-13T00:04:03;20.00;89.40
24326;DHT22;12448;45.532;5.290;2023-10-13T00:06:31;20.00;89.50
24326;DHT22;12448;45.532;5.290;2023-10-13T00:08:56;20.00;89.60
24326;DHT22;12448;45.532;5.290;2023-10-13T00:11:22;20.00;89.70
24326;DHT22;12448;45.532;5.290;2023-10-13T00:13:48;20.00;89.70
24326;DHT22;12448;45.532;5.290;2023-10-13T00:16:20;20.00;89.90
24326;DHT22;12448;45.532;5.290;2023-10-13T00:18:54;20.00;90.00
24326;DHT22;12448;45.532;5.290;2023-10-13T00:21:23;20.00;90.00
24326;DHT22;12448;45.532;5.290;2023-10-13T00:24:02;20.00;90.00
24326;DHT22;12448;45.532;5.290;2023-10-13T00:26:31;20.00;90.00
24326;DHT22;12448;45.532;5.290;2023-10-13T00:29:02;20.00;90.10
24326;DHT22;12448;45.532;5.290;2023-10-13T00:31:44;20.00;90.10
24326;DHT22;12448;45.532;5.290;2023-10-13T00:34:13;20.00;90.10
24326;DHT22;12448;45.532;5.290;2023-10-13T00:36:51;20.00;90.10
24326;DHT22;12448;45.532;5.290;2023-10-13T00:39:36;20.00;90.20
24326;DHT22;12448;45.532;5.290;2023-10-13T00:42:03;20.00;90.20
24326;DHT22;12448;45.532;5.290;2023-10-13T00:44:33;19.90;90.20
24326;DHT22;12448;45.532;5.290;2023-10-13T00:47:13;19.90;90.20
24326;DHT22;12448;45.532;5.290;2023-10-13T00:50:11;19.90;90.30
24326;DHT22;12448;45.532;5.290;2023-10-13T00:52:40;19.90;90.30
24326;DHT22;12448;45.532;5.290;2023-10-13T00:55:08;19.90;90.30
24326;DHT22;12448;45.532;5.290;2023-10-13T00:57:35;19.90;90.30
24326;DHT22;12448;45.532;5.290;2023-10-13T01:00:02;19.80;90.40
24326;DHT22;12448;45.532;5.290;2023-10-13T01:02:38;19.80;90.50
24326;DHT22;12448;45.532;5.290;2023-10-13T01:05:05;19.80;90.60
24326;DHT22;12448;45.532;5.290;2023-10-13T01:07:32;19.80;90.60
24326;DHT22;12448;45.532;5.290;2023-10-13T01:10:03;19.80;90.70
24326;DHT22;12448;45.532;5.290;2023-10-13T01:12:30;19.80;90.70
24326;DHT22;12448;45.532;5.290;2023-10-13T01:14:56;19.70;90.70
24326;DHT22;12448;45.532;5.290;2023-10-13T01:17:22;19.70;90.90
24326;DHT22;12448;45.532;5.290;2023-10-13T01:19:49;19.80;90.90
24326;DHT22;12448;45.532;5.290;2023-10-13T01:22:14;19.70;91.00
24326;DHT22;12448;45.532;5.290;2023-10-13T01:24:40;19.80;91.00
24326;DHT22;12448;45.532;5.290;2023-10-13T01:27:07;19.80;91.10
24326;DHT22;12448;45.532;5.290;2023-10-13T01:29:51;19.70;91.60
24326;DHT22;12448;45.532;5.290;2023-10-13T01:32:24;19.70;91.30
24326;DHT22;12448;45.532;5.290;2023-10-13T01:34:50;19.70;91.30
24326;DHT22;12448;45.532;5.290;2023-10-13T01:37:21;19.70;91.40
24326;DHT22;12448;45.532;5.290;2023-10-13T01:39:47;19.70;91.50
24326;DHT22;12448;45.532;5.290;2023-10-13T01:42:15;19.70;91.50
24326;DHT22;12448;45.532;5.290;2023-10-13T01:44:47;19.70;91.60
24326;DHT22;12448;45.532;5.290;2023-10-13T01:47:13;19.60;91.70
24326;DHT22;12448;45.532;5.290;2023-10-13T01:49:41;19.60;91.70
24326;DHT22;12448;45.532;5.290;2023-10-13T01:52:16;19.60;91.80
24326;DHT22;12448;45.532;5.290;2023-10-13T01:54:42;19.60;91.80
24326;DHT22;12448;45.532;5.290;2023-10-13T01:57:12;19.60;91.80
24326;DHT22;12448;45.532;5.290;2023-10-13T01:59:40;19.60;91.90
24326;DHT22;12448;45.532;5.290;2023-10-13T02:02:13;19.50;91.90
24326;DHT22;12448;45.532;5.290;2023-10-13T02:04:40;19.60;92.00
24326;DHT22;12448;45.532;5.290;2023-10-13T02:07:17;19.50;92.00
24326;DHT22;12448;45.532;5.290;2023-10-13T02:09:43;19.60;92.00
24326;DHT22;12448;45.532;5.290;2023-10-13T02:12:09;19.60;92.00
24326;DHT22;12448;45.532;5.290;2023-10-13T02:14:36;19.60;92.10
24326;DHT22;12448;45.532;5.290;2023-10-13T02:17:04;19.50;92.00
24326;DHT22;12448;45.532;5.290;2023-10-13T02:19:40;19.50;92.10
24326;DHT22;12448;45.532;5.290;2023-10-13T02:22:09;19.50;92.00
24326;DHT22;12448;45.532;5.290;2023-10-13T02:24:36;19.40;92.10
24326;DHT22;12448;45.532;5.290;2023-10-13T02:27:07;19.40;92.10
24326;DHT22;12448;45.532;5.290;2023-10-13T02:29:42;19.50;92.20
24326;DHT22;12448;45.532;5.290;2023-10-13T02:32:11;19.40;92.20
24326;DHT22;12448;45.532;5.290;2023-10-13T02:34:47;19.40;92.20
24326;DHT22;12448;45.532;5.290;2023-10-13T02:37:13;19.40;92.20
24326;DHT22;12448;45.532;5.290;2023-10-13T02:39:42;19.40;92.30
24326;DHT22;12448;45.532;5.290;2023-10-13T02:42:08;19.30;92.30
24326;DHT22;12448;45.532;5.290;2023-10-13T02:44:34;19.30;92.40
24326;DHT22;12448;45.532;5.290;2023-10-13T02:47:02;19.30;92.50
24326;DHT22;12448;45.532;5.290;2023-10-13T02:49:31;19.30;92.50
24326;DHT22;12448;45.532;5.290;2023-10-13T02:52:02;19.30;92.60
24326;DHT22;12448;45.532;5.290;2023-10-13T02:54:33;19.30;92.60
24326;DHT22;12448;45.532;5.290;2023-10-13T02:57:05;19.20;92.60
24326;DHT22;12448;45.532;5.290;2023-10-13T02:59:32;19.20;92.70
24326;DHT22;12448;45.532;5.290;2023-10-13T03:02:15;19.20;92.80
24326;DHT22;12448;45.532;5.290;2023-10-13T03:04:56;19.20;92.80
24326;DHT22;12448;45.532;5.290;2023-10-13T03:07:39;19.20;92.80
24326;DHT22;12448;45.532;5.290;2023-10-13T03:10:08;19.10;92.80
24326;DHT22;12448;45.532;5.290;2023-10-13T03:12:38;19.10;92.80
24326;DHT22;12448;45.532;5.290;2023-10-13T03:15:04;19.10;92.80
24326;DHT22;12448;45.532;5.290;2023-10-13T03:17:44;19.10;92.80
24326;DHT22;12448;45.532;5.290;2023-10-13T03:20:15;19.10;92.90
24326;DHT22;12448;45.532;5.290;2023-10-13T03:22:42;19.00;92.90
24326;DHT22;12448;45.532;5.290;2023-10-13T03:25:11;19.00;92.90
24326;DHT22;12448;45.532;5.290;2023-10-13T03:27:43;19.00;92.90
24326;DHT22;12448;45.532;5.290;2023-10-13T03:30:19;19.00;92.90
24326;DHT22;12448;45.532;5.290;2023-10-13T03:32:47;19.00;93.00
24326;DHT22;12448;45.532;5.290;2023-10-13T03:35:37;19.00;93.30
24326;DHT22;12448;45.532;5.290;2023-10-13T03:38:04;18.90;93.00
24326;DHT22;12448;45.532;5.290;2023-10-13T03:40:35;18.90;93.10
24326;DHT22;12448;45.532;5.290;2023-10-13T03:43:05;18.90;93.20
24326;DHT22;12448;45.532;5.290;2023-10-13T03:48:15;18.80;93.40
24326;DHT22;12448;45.532;5.290;2023-10-13T03:50:55;18.80;93.40
24326;DHT22;12448;45.532;5.290;2023-10-13T03:53:35;18.80;93.50
24326;DHT22;12448;45.532;5.290;2023-10-13T03:56:05;18.80;93.80
24326;DHT22;12448;45.532;5.290;2023-10-13T03:58:39;18.80;93.50
24326;DHT22;12448;45.532;5.290;2023-10-13T04:01:07;18.80;93.80
24326;DHT22;12448;45.532;5.290;2023-10-13T04:03:38;18.80;93.40
24326;DHT22;12448;45.532;5.290;2023-10-13T04:06:07;18.80;93.40
24326;DHT22;12448;45.532;5.290;2023-10-13T04:08:42;18.80;93.40
24326;DHT22;12448;45.532;5.290;2023-10-13T04:11:07;18.80;93.30
24326;DHT22;12448;45.532;5.290;2023-10-13T04:13:54;18.80;93.70
24326;DHT22;12448;45.532;5.290;2023-10-13T04:16:38;18.70;93.40
24326;DHT22;12448;45.532;5.290;2023-10-13T04:19:17;18.70;93.40
24326;DHT22;12448;45.532;5.290;2023-10-13T04:21:50;18.60;93.60
24326;DHT22;12448;45.532;5.290;2023-10-13T04:24:21;18.60;93.60
24326;DHT22;12448;45.532;5.290;2023-10-13T04:27:05;18.60;93.60
24326;DHT22;12448;45.532;5.290;2023-10-13T04:29:37;18.10;93.50
24326;DHT22;12448;45.532;5.290;2023-10-13T04:32:21;18.60;93.60
24326;DHT22;12448;45.532;5.290;2023-10-13T04:35:04;18.60;93.60
24326;DHT22;12448;45.532;5.290;2023-10-13T04:38:04;18.70;93.50
24326;DHT22;12448;45.532;5.290;2023-10-13T04:40:44;18.70;93.50
24326;DHT22;12448;45.532;5.290;2023-10-13T04:43:30;18.60;93.50
24326;DHT22;12448;45.532;5.290;2023-10-13T04:46:09;18.60;93.50
24326;DHT22;12448;45.532;5.290;2023-10-13T04:49:01;18.60;93.50
24326;DHT22;12448;45.532;5.290;2023-10-13T04:51:36;18.60;93.50
24326;DHT22;12448;45.532;5.290;2023-10-13T04:54:20;18.60;93.60
24326;DHT22;12448;45.532;5.290;2023-10-13T04:57:01;18.60;93.60
24326;DHT22;12448;45.532;5.290;2023-10-13T04:59:46;18.50;93.50
24326;DHT22;12448;45.532;5.290;2023-10-13T05:02:31;18.60;93.60
24326;DHT22;12448;45.532;5.290;2023-10-13T05:05:07;18.50;93.50
24326;DHT22;12448;45.532;5.290;2023-10-13T05:07:52;18.50;93.60
24326;DHT22;12448;45.532;5.290;2023-10-13T05:10:37;18.50;93.60
24326;DHT22;12448;45.532;5.290;2023-10-13T05:13:21;18.50;93.60
24326;DHT22;12448;45.532;5.290;2023-10-13T05:16:12;18.40;93.60
24326;DHT22;12448;45.532;5.290;2023-10-13T05:18:56;18.40;93.70
24326;DHT22;12448;45.532;5.290;2023-10-13T05:21:40;18.40;93.70
24326;DHT22;12448;45.532;5.290;2023-10-13T05:24:24;18.40;93.70
24326;DHT22;12448;45.532;5.290;2023-10-13T05:27:09;18.40;93.70
24326;DHT22;12448;45.532;5.290;2023-10-13T05:29:53;18.40;93.70
24326;DHT22;12448;45.532;5.290;2023-10-13T05:32:46;18.40;93.70
24326;DHT22;12448;45.532;5.290;2023-10-13T05:35:31;18.40;93.70
24326;DHT22;12448;45.532;5.290;2023-10-13T05:38:15;18.40;93.60
24326;DHT22;12448;45.532;5.290;2023-10-13T05:41:02;18.40;93.60
24326;DHT22;12448;45.532;5.290;2023-10-13T05:43:53;18.40;93.60
24326;DHT22;12448;45.532;5.290;2023-10-13T05:46:37;18.40;93.60
24326;DHT22;12448;45.532;5.290;2023-10-13T05:49:04;18.40;93.50
24326;DHT22;12448;45.532;5.290;2023-10-13T05:51:43;18.40;93.50
24326;DHT22;12448;45.532;5.290;2023-10-13T05:54:12;18.50;93.80
24326;DHT22;12448;45.532;5.290;2023-10-13T05:56:48;18.40;93.50
24326;DHT22;12448;45.532;5.290;2023-10-13T05:59:33;18.40;93.50
24326;DHT22;12448;45.532;5.290;2023-10-13T06:02:19;18.40;93.50
24326;DHT22;12448;45.532;5.290;2023-10-13T06:05:09;18.40;93.40
24326;DHT22;12448;45.532;5.290;2023-10-13T06:07:53;18.50;93.40
24326;DHT22;12448;45.532;5.290;2023-10-13T06:10:38;18.40;93.40
24326;DHT22;12448;45.532;5.290;2023-10-13T06:13:23;18.50;93.40
24326;DHT22;12448;45.532;5.290;2023-10-13T06:16:11;18.50;93.40
24326;DHT22;12448;45.532;5.290;2023-10-13T06:18:59;18.50;93.30
24326;DHT22;12448;45.532;5.290;2023-10-13T06:21:46;18.50;93.30
24326;DHT22;12448;45.532;5.290;2023-10-13T06:24:31;18.40;93.30
24326;DHT22;12448;45.532;5.290;2023-10-13T06:27:15;18.40;93.30
24326;DHT22;12448;45.532;5.290;2023-10-13T06:30:00;18.40;93.30
24326;DHT22;12448;45.532;5.290;2023-10-13T06:32:30;18.40;93.40
24326;DHT22;12448;45.532;5.290;2023-10-13T06:34:58;18.40;93.30
24326;DHT22;12448;45.532;5.290;2023-10-13T06:37:25;18.40;93.30
24326;DHT22;12448;45.532;5.290;2023-10-13T06:39:54;18.40;93.30
24326;DHT22;12448;45.532;5.290;2023-10-13T06:42:23;18.40;93.30
24326;DHT22;12448;45.532;5.290;2023-10-13T06:44:53;18.40;93.30
24326;DHT22;12448;45.532;5.290;2023-10-13T06:47:20;18.50;93.30
24326;DHT22;12448;45.532;5.290;2023-10-13T06:49:47;18.50;93.40
24326;DHT22;12448;45.532;5.290;2023-10-13T06:52:25;18.30;93.30
24326;DHT22;12448;45.532;5.290;2023-10-13T06:54:54;18.50;93.40
24326;DHT22;12448;45.532;5.290;2023-10-13T06:57:21;18.40;93.30
24326;DHT22;12448;45.532;5.290;2023-10-13T06:59:47;18.50;93.40
24326;DHT22;12448;45.532;5.290;2023-10-13T07:02:14;18.50;93.40
24326;DHT22;12448;45.532;5.290;2023-10-13T07:04:47;18.50;93.40
24326;DHT22;12448;45.532;5.290;2023-10-13T07:07:13;18.60;93.40
24326;DHT22;12448;45.532;5.290;2023-10-13T07:09:44;18.60;93.40
24326;DHT22;12448;45.532;5.290;2023-10-13T07:12:21;18.60;93.40
24326;DHT22;12448;45.532;5.290;2023-10-13T07:14:52;18.60;93.40
24326;DHT22;12448;45.532;5.290;2023-10-13T07:17:18;18.60;93.40
24326;DHT22;12448;45.532;5.290;2023-10-13T07:19:57;18.70;93.40
24326;DHT22;12448;45.532;5.290;2023-10-13T07:22:38;18.70;93.40
24326;DHT22;12448;45.532;5.290;2023-10-13T07:25:05;18.70;93.40
24326;DHT22;12448;45.532;5.290;2023-10-13T07:27:35;18.70;93.40
24326;DHT22;12448;45.532;5.290;2023-10-13T07:30:01;18.70;93.30
24326;DHT22;12448;45.532;5.290;2023-10-13T07:32:42;18.70;93.30
24326;DHT22;12448;45.532;5.290;2023-10-13T07:35:15;18.70;93.30
24326;DHT22;12448;45.532;5.290;2023-10-13T07:37:43;18.70;93.30
24326;DHT22;12448;45.532;5.290;2023-10-13T07:40:10;18.80;93.30
24326;DHT22;12448;45.532;5.290;2023-10-13T07:42:56;18.80;93.30
24326;DHT22;12448;45.532;5.290;2023-10-13T07:45:30;18.80;93.30
24326;DHT22;12448;45.532;5.290;2023-10-13T07:48:02;18.80;93.30
24326;DHT22;12448;45.532;5.290;2023-10-13T07:51:00;18.80;93.30
24326;DHT22;12448;45.532;5.290;2023-10-13T07:53:51;18.90;93.30
24326;DHT22;12448;45.532;5.290;2023-10-13T07:56:21;18.90;93.30
24326;DHT22;12448;45.532;5.290;2023-10-13T07:59:10;18.90;93.20
24326;DHT22;12448;45.532;5.290;2023-10-13T08:01:37;18.90;93.20
24326;DHT22;12448;45.532;5.290;2023-10-13T08:04:08;18.90;93.20
24326;DHT22;12448;45.532;5.290;2023-10-13T08:06:38;18.90;93.20
24326;DHT22;12448;45.532;5.290;2023-10-13T08:09:06;18.90;93.20
24326;DHT22;12448;45.532;5.290;2023-10-13T08:11:50;19.00;93.20
24326;DHT22;12448;45.532;5.290;2023-10-13T08:14:19;19.00;93.10
24326;DHT22;12448;45.532;5.290;2023-10-13T08:16:49;18.70;93.00
24326;DHT22;12448;45.532;5.290;2023-10-13T08:19:20;19.00;92.90
24326;DHT22;12448;45.532;5.290;2023-10-13T08:21:52;19.00;92.90
24326;DHT22;12448;45.532;5.290;2023-10-13T08:24:23;19.10;92.90
24326;DHT22;12448;45.532;5.290;2023-10-13T08:27:19;19.00;92.90
24326;DHT22;12448;45.532;5.290;2023-10-13T08:30:01;19.10;92.90
24326;DHT22;12448;45.532;5.290;2023-10-13T08:32:29;19.10;92.80
24326;DHT22;12448;45.532;5.290;2023-10-13T08:34:58;19.10;92.70
24326;DHT22;12448;45.532;5.290;2023-10-13T08:37:28;19.10;92.70
24326;DHT22;12448;45.532;5.290;2023-10-13T08:40:32;19.20;92.60
24326;DHT22;12448;45.532;5.290;2023-10-13T08:43:17;19.20;92.50
24326;DHT22;12448;45.532;5.290;2023-10-13T08:45:43;19.20;92.50
24326;DHT22;12448;45.532;5.290;2023-10-13T08:48:13;19.30;92.40
24326;DHT22;12448;45.532;5.290;2023-10-13T08:50:51;19.30;92.30
24326;DHT22;12448;45.532;5.290;2023-10-13T08:56:11;19.40;92.10
24326;DHT22;12448;45.532;5.290;2023-10-13T08:59:02;19.40;92.00
24326;DHT22;12448;45.532;5.290;2023-10-13T09:01:49;19.50;92.00
24326;DHT22;12448;45.532;5.290;2023-10-13T09:04:34;19.50;92.00
24326;DHT22;12448;45.532;5.290;2023-10-13T09:07:04;19.50;91.70
24326;DHT22;12448;45.532;5.290;2023-10-13T09:09:31;19.50;91.70
24326;DHT22;12448;45.532;5.290;2023-10-13T09:12:10;19.60;91.70
24326;DHT22;12448;45.532;5.290;2023-10-13T09:14:39;19.60;91.60
24326;DHT22;12448;45.532;5.290;2023-10-13T09:17:14;19.70;91.50
24326;DHT22;12448;45.532;5.290;2023-10-13T09:19:47;19.70;91.40
24326;DHT22;12448;45.532;5.290;2023-10-13T09:22:26;19.80;91.30
24326;DHT22;12448;45.532;5.290;2023-10-13T09:25:04;19.80;91.10
24326;DHT22;12448;45.532;5.290;2023-10-13T09:27:32;19.90;91.10
24326;DHT22;12448;45.532;5.290;2023-10-13T09:29:59;19.80;90.80
24326;DHT22;12448;45.532;5.290;2023-10-13T09:32:35;19.90;90.80
24326;DHT22;12448;45.532;5.290;2023-10-13T09:35:20;19.90;90.70
24326;DHT22;12448;45.532;5.290;2023-10-13T09:37:50;19.90;90.60
24326;DHT22;12448;45.532;5.290;2023-10-13T09:40:18;20.00;90.70
24326;DHT22;12448;45.532;5.290;2023-10-13T09:42:52;20.00;90.90
24326;DHT22;12448;45.532;5.290;2023-10-13T09:45:24;20.10;90.50
24326;DHT22;12448;45.532;5.290;2023-10-13T09:47:54;20.10;90.40
24326;DHT22;12448;45.532;5.290;2023-10-13T09:50:22;20.20;90.40
24326;DHT22;12448;45.532;5.290;2023-10-13T09:52:52;20.20;90.40
24326;DHT22;12448;45.532;5.290;2023-10-13T09:55:29;20.30;90.20
24326;DHT22;12448;45.532;5.290;2023-10-13T09:58:07;20.30;90.00
24326;DHT22;12448;45.532;5.290;2023-10-13T10:00:48;20.30;89.60
24326;DHT22;12448;45.532;5.290;2023-10-13T10:03:23;20.40;89.20
24326;DHT22;12448;45.532;5.290;2023-10-13T10:05:59;20.40;89.10
24326;DHT22;12448;45.532;5.290;2023-10-13T10:08:37;20.50;88.60
24326;DHT22;12448;45.532;5.290;2023-10-13T10:16:43;20.50;87.70
24326;DHT22;12448;45.532;5.290;2023-10-13T10:19:12;20.60;87.90
24326;DHT22;12448;45.532;5.290;2023-10-13T10:21:38;20.60;87.80
24326;DHT22;12448;45.532;5.290;2023-10-13T10:24:22;20.70;87.80
24326;DHT22;12448;45.532;5.290;2023-10-13T10:26:59;20.80;87.30
24326;DHT22;12448;45.532;5.290;2023-10-13T10:29:25;20.80;87.30
24326;DHT22;12448;45.532;5.290;2023-10-13T10:31:50;20.90;87.40
24326;DHT22;12448;45.532;5.290;2023-10-13T10:34:17;20.90;87.10
24326;DHT22;12448;45.532;5.290;2023-10-13T10:36:53;20.90;87.70
24326;DHT22;12448;45.532;5.290;2023-10-13T10:39:19;20.90;86.70
24326;DHT22;12448;45.532;5.290;2023-10-13T10:41:47;20.90;86.70
24326;DHT22;12448;45.532;5.290;2023-10-13T10:44:18;21.00;86.90
24326;DHT22;12448;45.532;5.290;2023-10-13T10:47:15;21.00;86.70
24326;DHT22;12448;45.532;5.290;2023-10-13T10:50:07;21.10;86.20
24326;DHT22;12448;45.532;5.290;2023-10-13T10:52:43;21.10;85.70
24326;DHT22;12448;45.532;5.290;2023-10-13T10:55:09;21.20;86.40
24326;DHT22;12448;45.532;5.290;2023-10-13T10:57:39;21.20;85.80
24326;DHT22;12448;45.532;5.290;2023-10-13T11:00:18;21.20;85.40
24326;DHT22;12448;45.532;5.290;2023-10-13T11:02:57;21.30;85.30
24326;DHT22;12448;45.532;5.290;2023-10-13T11:05:23;21.40;85.70
24326;DHT22;12448;45.532;5.290;2023-10-13T11:07:58;21.40;85.90
24326;DHT22;12448;45.532;5.290;2023-10-13T11:10:24;21.50;85.70
24326;DHT22;12448;45.532;5.290;2023-10-13T11:12:58;21.50;84.70
24326;DHT22;12448;45.532;5.290;2023-10-13T11:15:45;21.50;84.00
24326;DHT22;12448;45.532;5.290;2023-10-13T11:18:10;21.60;84.40
24326;DHT22;12448;45.532;5.290;2023-10-13T11:20:42;21.60;84.50
24326;DHT22;12448;45.532;5.290;2023-10-13T11:23:14;21.60;84.60
24326;DHT22;12448;45.532;5.290;2023-10-13T11:25:41;21.70;84.30
24326;DHT22;12448;45.532;5.290;2023-10-13T11:28:14;21.70;84.20
24326;DHT22;12448;45.532;5.290;2023-10-13T11:30:43;21.80;83.80
24326;DHT22;12448;45.532;5.290;2023-10-13T11:33:15;21.90;84.80
24326;DHT22;12448;45.532;5.290;2023-10-13T11:35:49;21.90;83.60
24326;DHT22;12448;45.532;5.290;2023-10-13T11:38:31;21.90;82.30
24326;DHT22;12448;45.532;5.290;2023-10-13T11:41:06;22.00;82.40
24326;DHT22;12448;45.532;5.290;2023-10-13T11:43:34;22.00;82.60
24326;DHT22;12448;45.532;5.290;2023-10-13T11:46:12;22.00;82.30
24326;DHT22;12448;45.532;5.290;2023-10-13T11:48:41;22.00;82.80
24326;DHT22;12448;45.532;5.290;2023-10-13T11:51:11;22.10;82.50
24326;DHT22;12448;45.532;5.290;2023-10-13T11:53:50;22.10;81.80
24326;DHT22;12448;45.532;5.290;2023-10-13T11:56:19;22.10;81.70
24326;DHT22;12448;45.532;5.290;2023-10-13T11:58:49;22.10;81.30
24326;DHT22;12448;45.532;5.290;2023-10-13T12:01:15;22.20;81.20
24326;DHT22;12448;45.532;5.290;2023-10-13T12:03:45;22.20;80.80
24326;DHT22;12448;45.532;5.290;2023-10-13T12:06:30;22.20;80.50
24326;DHT22;12448;45.532;5.290;2023-10-13T12:09:04;22.20;80.50
24326;DHT22;12448;45.532;5.290;2023-10-13T12:11:59;22.20;80.50
24326;DHT22;12448;45.532;5.290;2023-10-13T12:14:26;22.30;81.30
24326;DHT22;12448;45.532;5.290;2023-10-13T12:17:02;22.30;81.60
24326;DHT22;12448;45.532;5.290;2023-10-13T12:19:36;22.40;80.80
24326;DHT22;12448;45.532;5.290;2023-10-13T12:22:02;22.40;80.50
24326;DHT22;12448;45.532;5.290;2023-10-13T12:24:33;22.40;80.50
24326;DHT22;12448;45.532;5.290;2023-10-13T12:27:05;22.40;80.80
24326;DHT22;12448;45.532;5.290;2023-10-13T12:29:47;22.40;80.40
24326;DHT22;12448;45.532;5.290;2023-10-13T12:32:13;22.50;81.10
24326;DHT22;12448;45.532;5.290;2023-10-13T12:34:40;22.50;80.40
24326;DHT22;12448;45.532;5.290;2023-10-13T12:37:26;22.50;80.50
24326;DHT22;12448;45.532;5.290;2023-10-13T12:40:15;22.60;80.70
24326;DHT22;12448;45.532;5.290;2023-10-13T12:43:00;22.60;80.70
24326;DHT22;12448;45.532;5.290;2023-10-13T12:45:45;22.60;80.30
24326;DHT22;12448;45.532;5.290;2023-10-13T12:48:30;22.60;80.00
24326;DHT22;12448;45.532;5.290;2023-10-13T12:51:15;22.70;79.60
24326;DHT22;12448;45.532;5.290;2023-10-13T12:54:06;22.70;79.70
24326;DHT22;12448;45.532;5.290;2023-10-13T12:56:40;22.70;78.70
24326;DHT22;12448;45.532;5.290;2023-10-13T12:59:11;22.60;79.00
24326;DHT22;12448;45.532;5.290;2023-10-13T13:01:40;22.70;79.20
24326;DHT22;12448;45.532;5.290;2023-10-13T13:04:10;22.70;78.80
24326;DHT22;12448;45.532;5.290;2023-10-13T13:06:51;22.70;78.90
24326;DHT22;12448;45.532;5.290;2023-10-13T13:09:19;22.70;78.70
24326;DHT22;12448;45.532;5.290;2023-10-13T13:11:54;22.70;78.10
24326;DHT22;12448;45.532;5.290;2023-10-13T13:14:24;22.80;78.10
24326;DHT22;12448;45.532;5.290;2023-10-13T13:16:56;22.80;77.80
24326;DHT22;12448;45.532;5.290;2023-10-13T13:19:33;22.70;77.60
24326;DHT22;12448;45.532;5.290;2023-10-13T13:22:04;22.80;78.20
24326;DHT22;12448;45.532;5.290;2023-10-13T13:24:31;22.70;78.20
24326;DHT22;12448;45.532;5.290;2023-10-13T13:26:57;22.70;77.90
24326;DHT22;12448;45.532;5.290;2023-10-13T13:29:29;22.80;77.80
24326;DHT22;12448;45.532;5.290;2023-10-13T13:31:55;22.80;77.50
24326;DHT22;12448;45.532;5.290;2023-10-13T13:34:20;22.80;77.80
24326;DHT22;12448;45.532;5.290;2023-10-13T13:36:47;22.80;77.70
24326;DHT22;12448;45.532;5.290;2023-10-13T13:39:18;22.90;78.30
24326;DHT22;12448;45.532;5.290;2023-10-13T13:41:53;22.90;78.30
24326;DHT22;12448;45.532;5.290;2023-10-13T13:44:23;22.90;78.40
24326;DHT22;12448;45.532;5.290;2023-10-13T13:46:57;22.90;78.30
24326;DHT22;12448;45.532;5.290;2023-10-13T13:49:23;22.90;78.00
24326;DHT22;12448;45.532;5.290;2023-10-13T13:51:56;22.90;78.10
24326;DHT22;12448;45.532;5.290;2023-10-13T13:54:22;22.90;77.90
24326;DHT22;12448;45.532;5.290;2023-10-13T13:56:47;22.90;77.20
24326;DHT22;12448;45.532;5.290;2023-10-13T13:59:13;22.90;76.60
24326;DHT22;12448;45.532;5.290;2023-10-13T14:01:45;22.90;76.30
24326;DHT22;12448;45.532;5.290;2023-10-13T14:04:11;22.90;76.20
24326;DHT22;12448;45.532;5.290;2023-10-13T14:06:39;22.90;75.50
24326;DHT22;12448;45.532;5.290;2023-10-13T14:09:05;22.90;75.70
24326;DHT22;12448;45.532;5.290;2023-10-13T14:11:41;23.00;76.00
24326;DHT22;12448;45.532;5.290;2023-10-13T14:14:25;22.90;75.60
24326;DHT22;12448;45.532;5.290;2023-10-13T14:16:52;22.90;76.00
24326;DHT22;12448;45.532;5.290;2023-10-13T14:19:19;22.90;75.40
24326;DHT22;12448;45.532;5.290;2023-10-13T14:21:55;23.00;75.70
24326;DHT22;12448;45.532;5.290;2023-10-13T14:24:21;23.00;75.80
24326;DHT22;12448;45.532;5.290;2023-10-13T14:27:02;23.00;75.90
24326;DHT22;12448;45.532;5.290;2023-10-13T14:29:38;23.00;75.50
24326;DHT22;12448;45.532;5.290;2023-10-13T14:32:12;22.90;75.10
24326;DHT22;12448;45.532;5.290;2023-10-13T14:34:43;22.90;74.50
24326;DHT22;12448;45.532;5.290;2023-10-13T14:37:09;22.90;74.70
24326;DHT22;12448;45.532;5.290;2023-10-13T14:39:41;22.90;74.70
24326;DHT22;12448;45.532;5.290;2023-10-13T14:42:07;22.80;75.00
24326;DHT22;12448;45.532;5.290;2023-10-13T14:44:33;22.90;74.60
24326;DHT22;12448;45.532;5.290;2023-10-13T14:47:00;22.80;74.50
24326;DHT22;12448;45.532;5.290;2023-10-13T14:49:26;22.80;74.30
24326;DHT22;12448;45.532;5.290;2023-10-13T14:51:51;22.70;74.20
24326;DHT22;12448;45.532;5.290;2023-10-13T14:54:20;22.70;74.30
24326;DHT22;12448;45.532;5.290;2023-10-13T14:57:00;22.60;74.60
24326;DHT22;12448;45.532;5.290;2023-10-13T14:59:26;22.60;74.80
24326;DHT22;12448;45.532;5.290;2023-10-13T15:01:53;22.60;75.70
24326;DHT22;12448;45.532;5.290;2023-10-13T15:04:18;22.60;75.20
24326;DHT22;12448;45.532;5.290;2023-10-13T15:06:50;22.50;75.10
24326;DHT22;12448;45.532;5.290;2023-10-13T15:09:15;22.60;75.30
24326;DHT22;12448;45.532;5.290;2023-10-13T15:11:49;22.50;75.50
24326;DHT22;12448;45.532;5.290;2023-10-13T15:14:18;22.80;75.80
24326;DHT22;12448;45.532;5.290;2023-10-13T15:16:46;22.50;75.80
24326;DHT22;12448;45.532;5.290;2023-10-13T15:19:12;22.50;75.90
24326;DHT22;12448;45.532;5.290;2023-10-13T15:21:38;22.50;75.90
24326;DHT22;12448;45.532;5.290;2023-10-13T15:24:07;22.50;76.00
24326;DHT22;12448;45.532;5.290;2023-10-13T15:26:40;22.40;76.40
24326;DHT22;12448;45.532;5.290;2023-10-13T15:29:08;22.40;76.60
24326;DHT22;12448;45.532;5.290;2023-10-13T15:31:38;22.30;76.20
24326;DHT22;12448;45.532;5.290;2023-10-13T15:34:13;22.30;76.70
24326;DHT22;12448;45.532;5.290;2023-10-13T15:36:40;22.20;77.10
24326;DHT22;12448;45.532;5.290;2023-10-13T15:39:11;22.10;77.30
24326;DHT22;12448;45.532;5.290;2023-10-13T15:41:37;22.10;77.60
24326;DHT22;12448;45.532;5.290;2023-10-13T15:44:04;22.10;78.00
24326;DHT22;12448;45.532;5.290;2023-10-13T15:46:35;22.10;78.20
24326;DHT22;12448;45.532;5.290;2023-10-13T15:49:01;22.10;78.30
24326;DHT22;12448;45.532;5.290;2023-10-13T15:51:28;22.10;78.50
24326;DHT22;12448;45.532;5.290;2023-10-13T15:53:55;22.10;78.80
24326;DHT22;12448;45.532;5.290;2023-10-13T15:56:21;22.10;78.90
24326;DHT22;12448;45.532;5.290;2023-10-13T15:58:47;22.10;79.00
24326;DHT22;12448;45.532;5.290;2023-10-13T16:01:14;22.00;79.10
24326;DHT22;12448;45.532;5.290;2023-10-13T16:03:40;22.00;79.20
24326;DHT22;12448;45.532;5.290;2023-10-13T16:06:12;22.00;79.40
24326;DHT22;12448;45.532;5.290;2023-10-13T16:08:39;22.00;79.50
24326;DHT22;12448;45.532;5.290;2023-10-13T16:11:10;21.90;79.80
24326;DHT22;12448;45.532;5.290;2023-10-13T16:13:40;21.90;79.90
24326;DHT22;12448;45.532;5.290;2023-10-13T16:16:06;21.80;80.00
24326;DHT22;12448;45.532;5.290;2023-10-13T16:18:39;21.80;80.10
24326;DHT22;12448;45.532;5.290;2023-10-13T16:21:08;21.70;80.20